sensor_id;sensor_type;location;lat;lon;timestamp;temperature;humidity
3416;DHT22;1721;51.238;9.562;2023-02-01T00:02:05;6.80;97.10
3416;DHT22;1721;51.238;9.562;2023-02-01T00:04:30;6.90;97.10
3416;DHT22;1721;51.238;9.562;2023-02-01T00:06:56;7.00;96.90
3416;DHT22;1721;51.238;9.562;2023-02-01T00:09:22;7.10;96.90
3416;DHT22;1721;51.238;9.562;2023-02-01T00:11:47;7.10;96.80
3416;DHT22;1721;51.238;9.562;2023-02-01T00:14:13;7.10;97.00
3416;DHT22;1721;51.238;9.562;2023-02-01T00:16:39;7.10;96.70
3416;DHT22;1721;51.238;9.562;2023-02-01T00:19:07;7.00;96.50
3416;DHT22;1721;51.238;9.562;2023-02-01T00:21:33;7.00;96.70
3416;DHT22;1721;51.238;9.562;2023-02-01T00:23:59;7.00;96.50
3416;DHT22;1721;51.238;9.562;2023-02-01T00:26:35;6.90;96.60
3416;DHT22;1721;51.238;9.562;2023-02-01T00:29:03;6.90;96.70
3416;DHT22;1721;51.238;9.562;2023-02-01T00:31:29;6.80;96.40
3416;DHT22;1721;51.238;9.562;2023-02-01T00:33:55;6.60;96.70
3416;DHT22;1721;51.238;9.562;2023-02-01T00:36:20;6.60;97.00
3416;DHT22;1721;51.238;9.562;2023-02-01T00:38:46;6.70;96.90
3416;DHT22;1721;51.238;9.562;2023-02-01T00:41:14;6.70;96.70
3416;DHT22;1721;51.238;9.562;2023-02-01T00:43:41;6.70;96.50
3416;DHT22;1721;51.238;9.562;2023-02-01T00:46:07;6.60;96.80
3416;DHT22;1721;51.238;9.562;2023-02-01T00:48:32;6.60;96.60
3416;DHT22;1721;51.238;9.562;2023-02-01T00:51:07;6.70;96.60
3416;DHT22;1721;51.238;9.562;2023-02-01T00:53:33;6.70;96.60
3416;DHT22;1721;51.238;9.562;2023-02-01T00:55:59;6.70;96.60
3416;DHT22;1721;51.238;9.562;2023-02-01T00:58:25;6.70;96.60
3416;DHT22;1721;51.238;9.562;2023-02-01T01:01:08;6.50;96.70
3416;DHT22;1721;51.238;9.562;2023-02-01T01:03:37;6.40;97.20
3416;DHT22;1721;51.238;9.562;2023-02-01T01:06:06;6.30;96.90
3416;DHT22;1721;51.238;9.562;2023-02-01T01:08:32;6.40;97.10
3416;DHT22;1721;51.238;9.562;2023-02-01T01:10:59;6.60;97.00
3416;DHT22;1721;51.238;9.562;2023-02-01T01:13:28;6.70;96.80
3416;DHT22;1721;51.238;9.562;2023-02-01T01:15:54;6.80;96.70
3416;DHT22;1721;51.238;9.562;2023-02-01T01:18:19;6.80;96.60
3416;DHT22;1721;51.238;9.562;2023-02-01T01:20:45;7.00;96.70
3416;DHT22;1721;51.238;9.562;2023-02-01T01:23:10;6.80;96.90
3416;DHT22;1721;51.238;9.562;2023-02-01T01:25:39;6.90;96.80
3416;DHT22;1721;51.238;9.562;2023-02-01T01:28:05;7.00;96.70
3416;DHT22;1721;51.238;9.562;2023-02-01T01:30:31;7.00;96.50
3416;DHT22;1721;51.238;9.562;2023-02-01T01:32:58;7.10;96.40
3416;DHT22;1721;51.238;9.562;2023-02-01T01:35:23;7.00;96.20
3416;DHT22;1721;51.238;9.562;2023-02-01T01:37:49;6.90;96.20
3416;DHT22;1721;51.238;9.562;2023-02-01T01:40:14;6.80;96.10
3416;DHT22;1721;51.238;9.562;2023-02-01T01:42:42;6.70;96.30
3416;DHT22;1721;51.238;9.562;2023-02-01T01:45:24;6.80;96.40
3416;DHT22;1721;51.238;9.562;2023-02-01T01:48:13;6.90;96.30
3416;DHT22;1721;51.238;9.562;2023-02-01T01:50:48;6.90;96.60
3416;DHT22;1721;51.238;9.562;2023-02-01T01:53:27;7.00;96.50
3416;DHT22;1721;51.238;9.562;2023-02-01T01:55:54;7.00;96.40
3416;DHT22;1721;51.238;9.562;2023-02-01T01:58:24;7.00;96.40
3416;DHT22;1721;51.238;9.562;2023-02-01T02:00:50;6.90;96.60
3416;DHT22;1721;51.238;9.562;2023-02-01T02:03:21;6.90;96.70
3416;DHT22;1721;51.238;9.562;2023-02-01T02:05:49;6.90;96.70
3416;DHT22;1721;51.238;9.562;2023-02-01T02:08:17;7.00;96.60
3416;DHT22;1721;51.238;9.562;2023-02-01T02:10:43;7.00;96.50
3416;DHT22;1721;51.238;9.562;2023-02-01T02:13:36;7.10;96.50
3416;DHT22;1721;51.238;9.562;2023-02-01T02:24:48;7.20;96.40
3416;DHT22;1721;51.238;9.562;2023-02-01T02:27:40;7.00;96.50
3416;DHT22;1721;51.238;9.562;2023-02-01T02:33:23;6.60;96.70
3416;DHT22;1721;51.238;9.562;2023-02-01T02:36:21;6.70;97.10
3416;DHT22;1721;51.238;9.562;2023-02-01T02:50:51;5.90;98.10
3416;DHT22;1721;51.238;9.562;2023-02-01T02:53:46;5.80;98.20
3416;DHT22;1721;51.238;9.562;2023-02-01T02:56:33;6.00;98.40
3416;DHT22;1721;51.238;9.562;2023-02-01T02:59:21;6.00;98.40
3416;DHT22;1721;51.238;9.562;2023-02-01T03:02:08;6.30;98.30
3416;DHT22;1721;51.238;9.562;2023-02-01T03:04:55;6.50;98.00
3416;DHT22;1721;51.238;9.562;2023-02-01T03:19:06;6.50;97.50
3416;DHT22;1721;51.238;9.562;2023-02-01T03:24:23;6.40;97.80
3416;DHT22;1721;51.238;9.562;2023-02-01T03:27:03;6.30;97.70
3416;DHT22;1721;51.238;9.562;2023-02-01T03:29:38;6.50;97.70
3416;DHT22;1721;51.238;9.562;2023-02-01T03:32:05;6.50;97.40
3416;DHT22;1721;51.238;9.562;2023-02-01T03:34:31;6.70;97.40
3416;DHT22;1721;51.238;9.562;2023-02-01T03:37:03;6.70;97.50
3416;DHT22;1721;51.238;9.562;2023-02-01T03:39:48;6.80;97.40
3416;DHT22;1721;51.238;9.562;2023-02-01T03:45:10;6.90;97.20
3416;DHT22;1721;51.238;9.562;2023-02-01T03:47:41;7.00;97.20
3416;DHT22;1721;51.238;9.562;2023-02-01T03:50:14;7.00;96.90
3416;DHT22;1721;51.238;9.562;2023-02-01T03:53:05;6.90;97.20
3416;DHT22;1721;51.238;9.562;2023-02-01T03:55:32;6.80;97.30
3416;DHT22;1721;51.238;9.562;2023-02-01T03:58:06;6.80;97.30
3416;DHT22;1721;51.238;9.562;2023-02-01T04:00:33;7.00;97.30
3416;DHT22;1721;51.238;9.562;2023-02-01T04:02:58;7.10;97.00
3416;DHT22;1721;51.238;9.562;2023-02-01T04:05:24;7.10;96.90
3416;DHT22;1721;51.238;9.562;2023-02-01T04:07:49;7.00;96.90
3416;DHT22;1721;51.238;9.562;2023-02-01T04:10:15;6.80;97.00
3416;DHT22;1721;51.238;9.562;2023-02-01T04:12:41;6.70;97.10
3416;DHT22;1721;51.238;9.562;2023-02-01T04:15:07;6.60;97.30
3416;DHT22;1721;51.238;9.562;2023-02-01T04:17:33;6.70;97.40
3416;DHT22;1721;51.238;9.562;2023-02-01T04:19:58;6.70;97.20
3416;DHT22;1721;51.238;9.562;2023-02-01T04:22:24;6.50;96.80
3416;DHT22;1721;51.238;9.562;2023-02-01T04:24:50;6.50;97.30
3416;DHT22;1721;51.238;9.562;2023-02-01T04:27:15;6.70;97.00
3416;DHT22;1721;51.238;9.562;2023-02-01T04:29:41;6.70;97.00
3416;DHT22;1721;51.238;9.562;2023-02-01T04:32:07;6.80;96.70
3416;DHT22;1721;51.238;9.562;2023-02-01T04:34:33;6.90;96.50
3416;DHT22;1721;51.238;9.562;2023-02-01T04:36:58;6.90;96.50
3416;DHT22;1721;51.238;9.562;2023-02-01T04:39:24;7.00;96.40
3416;DHT22;1721;51.238;9.562;2023-02-01T04:41:49;6.90;96.00
3416;DHT22;1721;51.238;9.562;2023-02-01T04:44:17;6.90;96.20
3416;DHT22;1721;51.238;9.562;2023-02-01T04:46:44;7.10;95.80
3416;DHT22;1721;51.238;9.562;2023-02-01T04:49:10;6.70;95.70
3416;DHT22;1721;51.238;9.562;2023-02-01T04:51:36;6.90;96.00
3416;DHT22;1721;51.238;9.562;2023-02-01T04:54:02;6.60;96.30
3416;DHT22;1721;51.238;9.562;2023-02-01T04:56:28;6.70;96.30
3416;DHT22;1721;51.238;9.562;2023-02-01T04:58:54;6.90;96.20
3416;DHT22;1721;51.238;9.562;2023-02-01T05:01:20;7.00;96.00
3416;DHT22;1721;51.238;9.562;2023-02-01T05:03:46;7.10;96.30
3416;DHT22;1721;51.238;9.562;2023-02-01T05:06:11;7.30;95.80
3416;DHT22;1721;51.238;9.562;2023-02-01T05:08:37;7.10;95.80
3416;DHT22;1721;51.238;9.562;2023-02-01T05:11:02;6.90;95.70
3416;DHT22;1721;51.238;9.562;2023-02-01T05:13:29;6.70;95.20
3416;DHT22;1721;51.238;9.562;2023-02-01T05:16:14;6.60;95.60
3416;DHT22;1721;51.238;9.562;2023-02-01T05:18:40;6.60;95.40
3416;DHT22;1721;51.238;9.562;2023-02-01T05:21:05;6.40;96.10
3416;DHT22;1721;51.238;9.562;2023-02-01T05:23:31;6.50;96.10
3416;DHT22;1721;51.238;9.562;2023-02-01T05:26:01;6.50;95.80
3416;DHT22;1721;51.238;9.562;2023-02-01T05:28:27;6.20;95.70
3416;DHT22;1721;51.238;9.562;2023-02-01T05:30:53;6.20;96.00
3416;DHT22;1721;51.238;9.562;2023-02-01T05:33:19;6.20;96.20
3416;DHT22;1721;51.238;9.562;2023-02-01T05:35:44;6.20;96.30
3416;DHT22;1721;51.238;9.562;2023-02-01T05:38:10;6.10;96.00
3416;DHT22;1721;51.238;9.562;2023-02-01T05:40:35;6.30;96.00
3416;DHT22;1721;51.238;9.562;2023-02-01T05:43:01;6.40;95.70
3416;DHT22;1721;51.238;9.562;2023-02-01T05:45:27;6.20;95.70
3416;DHT22;1721;51.238;9.562;2023-02-01T05:47:52;6.20;95.70
3416;DHT22;1721;51.238;9.562;2023-02-01T05:50:18;6.20;96.00
3416;DHT22;1721;51.238;9.562;2023-02-01T05:52:44;6.20;95.80
3416;DHT22;1721;51.238;9.562;2023-02-01T05:55:09;6.10;95.60
3416;DHT22;1721;51.238;9.562;2023-02-01T05:57:35;6.20;96.00
3416;DHT22;1721;51.238;9.562;2023-02-01T06:00:00;6.30;95.70
3416;DHT22;1721;51.238;9.562;2023-02-01T06:02:26;6.30;95.50
3416;DHT22;1721;51.238;9.562;2023-02-01T06:04:52;6.40;95.60
3416;DHT22;1721;51.238;9.562;2023-02-01T06:07:17;6.20;95.70
3416;DHT22;1721;51.238;9.562;2023-02-01T06:09:43;6.20;95.60
3416;DHT22;1721;51.238;9.562;2023-02-01T06:12:09;6.20;95.70
3416;DHT22;1721;51.238;9.562;2023-02-01T06:14:35;6.20;95.90
3416;DHT22;1721;51.238;9.562;2023-02-01T06:17:02;6.40;96.00
3416;DHT22;1721;51.238;9.562;2023-02-01T06:19:28;6.30;95.60
3416;DHT22;1721;51.238;9.562;2023-02-01T06:21:53;6.20;95.90
3416;DHT22;1721;51.238;9.562;2023-02-01T06:24:19;6.10;96.20
3416;DHT22;1721;51.238;9.562;2023-02-01T06:26:45;6.20;96.10
3416;DHT22;1721;51.238;9.562;2023-02-01T06:29:10;6.00;96.10
3416;DHT22;1721;51.238;9.562;2023-02-01T06:31:36;6.00;96.30
3416;DHT22;1721;51.238;9.562;2023-02-01T06:34:01;6.20;96.30
3416;DHT22;1721;51.238;9.562;2023-02-01T06:36:28;6.20;96.10
3416;DHT22;1721;51.238;9.562;2023-02-01T06:38:55;6.20;96.00
3416;DHT22;1721;51.238;9.562;2023-02-01T06:41:22;6.30;96.30
3416;DHT22;1721;51.238;9.562;2023-02-01T06:43:48;6.20;96.00
3416;DHT22;1721;51.238;9.562;2023-02-01T06:46:14;6.10;95.70
3416;DHT22;1721;51.238;9.562;2023-02-01T06:48:40;6.00;95.60
3416;DHT22;1721;51.238;9.562;2023-02-01T06:51:14;5.80;96.10
3416;DHT22;1721;51.238;9.562;2023-02-01T06:53:41;5.80;96.20
3416;DHT22;1721;51.238;9.562;2023-02-01T06:56:09;5.90;96.50
3416;DHT22;1721;51.238;9.562;2023-02-01T06:58:34;5.90;96.30
3416;DHT22;1721;51.238;9.562;2023-02-01T07:01:08;6.20;96.40
3416;DHT22;1721;51.238;9.562;2023-02-01T07:03:34;6.20;96.30
3416;DHT22;1721;51.238;9.562;2023-02-01T07:06:00;6.20;95.90
3416;DHT22;1721;51.238;9.562;2023-02-01T07:08:30;6.10;96.10
3416;DHT22;1721;51.238;9.562;2023-02-01T07:10:56;6.00;96.20
3416;DHT22;1721;51.238;9.562;2023-02-01T07:13:21;6.20;96.50
3416;DHT22;1721;51.238;9.562;2023-02-01T07:15:47;6.10;96.20
3416;DHT22;1721;51.238;9.562;2023-02-01T07:18:14;6.10;96.20
3416;DHT22;1721;51.238;9.562;2023-02-01T07:20:41;6.10;96.50
3416;DHT22;1721;51.238;9.562;2023-02-01T07:23:07;6.10;96.60
3416;DHT22;1721;51.238;9.562;2023-02-01T07:25:34;6.00;96.20
3416;DHT22;1721;51.238;9.562;2023-02-01T07:28:00;6.10;96.60
3416;DHT22;1721;51.238;9.562;2023-02-01T07:30:25;6.10;96.30
3416;DHT22;1721;51.238;9.562;2023-02-01T07:32:51;6.30;96.40
3416;DHT22;1721;51.238;9.562;2023-02-01T07:35:17;6.40;96.10
3416;DHT22;1721;51.238;9.562;2023-02-01T07:37:42;6.20;95.80
3416;DHT22;1721;51.238;9.562;2023-02-01T07:40:08;6.20;96.40
3416;DHT22;1721;51.238;9.562;2023-02-01T07:42:34;6.20;96.20
3416;DHT22;1721;51.238;9.562;2023-02-01T07:45:00;6.30;95.80
3416;DHT22;1721;51.238;9.562;2023-02-01T07:47:26;6.40;96.10
3416;DHT22;1721;51.238;9.562;2023-02-01T07:49:51;6.60;95.80
3416;DHT22;1721;51.238;9.562;2023-02-01T07:52:17;6.50;95.90
3416;DHT22;1721;51.238;9.562;2023-02-01T07:54:42;6.60;95.60
3416;DHT22;1721;51.238;9.562;2023-02-01T07:57:08;6.60;95.70
3416;DHT22;1721;51.238;9.562;2023-02-01T07:59:34;6.70;95.70
3416;DHT22;1721;51.238;9.562;2023-02-01T08:02:00;6.50;95.30
3416;DHT22;1721;51.238;9.562;2023-02-01T08:04:26;6.40;95.10
3416;DHT22;1721;51.238;9.562;2023-02-01T08:06:51;6.30;95.00
3416;DHT22;1721;51.238;9.562;2023-02-01T08:09:17;6.20;94.90
3416;DHT22;1721;51.238;9.562;2023-02-01T08:11:43;6.10;95.10
3416;DHT22;1721;51.238;9.562;2023-02-01T08:14:08;6.30;95.30
3416;DHT22;1721;51.238;9.562;2023-02-01T08:16:34;6.30;94.50
3416;DHT22;1721;51.238;9.562;2023-02-01T08:19:01;6.30;94.10
3416;DHT22;1721;51.238;9.562;2023-02-01T08:21:28;6.20;94.30
3416;DHT22;1721;51.238;9.562;2023-02-01T08:24:05;6.20;94.50
3416;DHT22;1721;51.238;9.562;2023-02-01T08:26:31;6.00;94.50
3416;DHT22;1721;51.238;9.562;2023-02-01T08:29:00;6.10;94.50
3416;DHT22;1721;51.238;9.562;2023-02-01T08:31:27;6.10;94.60
3416;DHT22;1721;51.238;9.562;2023-02-01T08:33:57;6.00;94.90
3416;DHT22;1721;51.238;9.562;2023-02-01T08:36:24;6.10;94.60
3416;DHT22;1721;51.238;9.562;2023-02-01T08:38:50;6.00;94.40
3416;DHT22;1721;51.238;9.562;2023-02-01T08:41:18;6.10;94.50
3416;DHT22;1721;51.238;9.562;2023-02-01T08:43:45;6.10;94.60
3416;DHT22;1721;51.238;9.562;2023-02-01T08:46:11;6.30;94.60
3416;DHT22;1721;51.238;9.562;2023-02-01T08:48:37;6.10;94.20
3416;DHT22;1721;51.238;9.562;2023-02-01T08:51:07;6.30;94.90
3416;DHT22;1721;51.238;9.562;2023-02-01T08:53:33;6.50;94.20
3416;DHT22;1721;51.238;9.562;2023-02-01T08:56:00;6.50;94.10
3416;DHT22;1721;51.238;9.562;2023-02-01T08:58:26;6.60;94.30
3416;DHT22;1721;51.238;9.562;2023-02-01T09:00:51;6.70;93.80
3416;DHT22;1721;51.238;9.562;2023-02-01T09:03:17;6.60;94.10
3416;DHT22;1721;51.238;9.562;2023-02-01T09:05:43;6.70;94.20
3416;DHT22;1721;51.238;9.562;2023-02-01T09:08:11;6.80;93.60
3416;DHT22;1721;51.238;9.562;2023-02-01T09:10:39;6.70;94.00
3416;DHT22;1721;51.238;9.562;2023-02-01T09:13:06;6.90;93.90
3416;DHT22;1721;51.238;9.562;2023-02-01T09:15:33;6.80;93.70
3416;DHT22;1721;51.238;9.562;2023-02-01T09:17:58;6.80;93.80
3416;DHT22;1721;51.238;9.562;2023-02-01T09:20:24;7.20;93.70
3416;DHT22;1721;51.238;9.562;2023-02-01T09:22:51;7.30;93.50
3416;DHT22;1721;51.238;9.562;2023-02-01T09:25:17;7.30;93.10
3416;DHT22;1721;51.238;9.562;2023-02-01T09:27:42;7.20;93.40
3416;DHT22;1721;51.238;9.562;2023-02-01T09:30:08;7.20;93.30
3416;DHT22;1721;51.238;9.562;2023-02-01T09:32:35;7.00;93.40
3416;DHT22;1721;51.238;9.562;2023-02-01T09:35:00;7.00;93.10
3416;DHT22;1721;51.238;9.562;2023-02-01T09:37:26;7.00;92.70
3416;DHT22;1721;51.238;9.562;2023-02-01T09:39:51;7.10;93.70
3416;DHT22;1721;51.238;9.562;2023-02-01T09:45:38;7.00;93.20
3416;DHT22;1721;51.238;9.562;2023-02-01T09:48:15;7.00;92.30
3416;DHT22;1721;51.238;9.562;2023-02-01T09:50:45;6.90;92.60
3416;DHT22;1721;51.238;9.562;2023-02-01T09:53:24;6.90;92.40
3416;DHT22;1721;51.238;9.562;2023-02-01T09:55:51;7.10;92.70
3416;DHT22;1721;51.238;9.562;2023-02-01T09:58:42;7.20;92.70
3416;DHT22;1721;51.238;9.562;2023-02-01T10:01:20;7.30;92.60
3416;DHT22;1721;51.238;9.562;2023-02-01T10:03:47;7.50;92.70
3416;DHT22;1721;51.238;9.562;2023-02-01T10:09:11;7.50;92.30
3416;DHT22;1721;51.238;9.562;2023-02-01T10:12:22;7.30;92.30
3416;DHT22;1721;51.238;9.562;2023-02-01T10:23:30;7.70;93.50
3416;DHT22;1721;51.238;9.562;2023-02-01T10:26:09;7.90;92.50
3416;DHT22;1721;51.238;9.562;2023-02-01T10:28:38;7.90;93.50
3416;DHT22;1721;51.238;9.562;2023-02-01T10:31:05;7.70;93.30
3416;DHT22;1721;51.238;9.562;2023-02-01T10:38:34;8.10;93.60
3416;DHT22;1721;51.238;9.562;2023-02-01T10:43:38;7.50;92.90
3416;DHT22;1721;51.238;9.562;2023-02-01T10:46:05;7.60;93.50
3416;DHT22;1721;51.238;9.562;2023-02-01T10:48:32;7.60;93.50
3416;DHT22;1721;51.238;9.562;2023-02-01T10:51:06;7.60;93.30
3416;DHT22;1721;51.238;9.562;2023-02-01T10:56:13;8.20;93.50
3416;DHT22;1721;51.238;9.562;2023-02-01T10:58:46;8.10;92.90
3416;DHT22;1721;51.238;9.562;2023-02-01T11:01:22;8.10;92.60
3416;DHT22;1721;51.238;9.562;2023-02-01T11:04:00;7.80;92.70
3416;DHT22;1721;51.238;9.562;2023-02-01T11:11:33;7.60;93.50
3416;DHT22;1721;51.238;9.562;2023-02-01T11:14:56;7.80;93.10
3416;DHT22;1721;51.238;9.562;2023-02-01T11:17:27;7.60;92.90
3416;DHT22;1721;51.238;9.562;2023-02-01T11:19:58;7.60;93.00
3416;DHT22;1721;51.238;9.562;2023-02-01T11:22:25;7.70;93.20
3416;DHT22;1721;51.238;9.562;2023-02-01T11:24:51;7.70;92.90
3416;DHT22;1721;51.238;9.562;2023-02-01T11:27:20;7.70;92.90
3416;DHT22;1721;51.238;9.562;2023-02-01T11:29:50;7.80;93.20
3416;DHT22;1721;51.238;9.562;2023-02-01T11:32:18;7.90;92.60
3416;DHT22;1721;51.238;9.562;2023-02-01T11:34:55;7.60;92.30
3416;DHT22;1721;51.238;9.562;2023-02-01T11:37:25;7.70;93.10
3416;DHT22;1721;51.238;9.562;2023-02-01T11:39:56;7.70;93.40
3416;DHT22;1721;51.238;9.562;2023-02-01T11:42:22;8.00;93.20
3416;DHT22;1721;51.238;9.562;2023-02-01T11:44:47;8.10;92.80
3416;DHT22;1721;51.238;9.562;2023-02-01T11:47:31;8.20;92.20
3416;DHT22;1721;51.238;9.562;2023-02-01T11:50:16;8.00;92.20
3416;DHT22;1721;51.238;9.562;2023-02-01T11:59:08;7.80;92.80
3416;DHT22;1721;51.238;9.562;2023-02-01T12:05:31;8.40;92.30
3416;DHT22;1721;51.238;9.562;2023-02-01T12:08:12;8.70;92.30
3416;DHT22;1721;51.238;9.562;2023-02-01T12:11:01;8.70;92.10
3416;DHT22;1721;51.238;9.562;2023-02-01T12:22:12;8.70;91.20
3416;DHT22;1721;51.238;9.562;2023-02-01T12:25:28;8.80;91.90
3416;DHT22;1721;51.238;9.562;2023-02-01T12:36:19;8.50;92.00
3416;DHT22;1721;51.238;9.562;2023-02-01T12:38:55;8.60;92.00
3416;DHT22;1721;51.238;9.562;2023-02-01T12:41:49;8.80;91.60
3416;DHT22;1721;51.238;9.562;2023-02-01T12:44:24;8.80;91.50
3416;DHT22;1721;51.238;9.562;2023-02-01T12:52:52;8.70;91.60
3416;DHT22;1721;51.238;9.562;2023-02-01T12:55:34;8.80;91.60
3416;DHT22;1721;51.238;9.562;2023-02-01T12:58:08;8.70;91.30
3416;DHT22;1721;51.238;9.562;2023-02-01T13:00:41;8.70;91.90
3416;DHT22;1721;51.238;9.562;2023-02-01T13:06:10;8.60;92.20
3416;DHT22;1721;51.238;9.562;2023-02-01T13:13:48;8.60;92.00
3416;DHT22;1721;51.238;9.562;2023-02-01T13:21:51;8.40;92.00
3416;DHT22;1721;51.238;9.562;2023-02-01T13:26:55;8.30;92.60
3416;DHT22;1721;51.238;9.562;2023-02-01T13:29:23;8.30;92.40
3416;DHT22;1721;51.238;9.562;2023-02-01T13:37:45;8.30;92.60
3416;DHT22;1721;51.238;9.562;2023-02-01T13:43:14;8.20;92.40
3416;DHT22;1721;51.238;9.562;2023-02-01T13:45:53;8.20;92.90
3416;DHT22;1721;51.238;9.562;2023-02-01T13:48:36;8.10;92.80
3416;DHT22;1721;51.238;9.562;2023-02-01T13:51:04;8.20;92.70
3416;DHT22;1721;51.238;9.562;2023-02-01T13:53:34;8.10;92.60
3416;DHT22;1721;51.238;9.562;2023-02-01T13:56:05;8.00;93.00
3416;DHT22;1721;51.238;9.562;2023-02-01T13:58:34;7.90;93.20
3416;DHT22;1721;51.238;9.562;2023-02-01T14:06:35;7.70;93.90
3416;DHT22;1721;51.238;9.562;2023-02-01T14:11:39;7.60;93.70
3416;DHT22;1721;51.238;9.562;2023-02-01T14:16:44;7.50;94.40
3416;DHT22;1721;51.238;9.562;2023-02-01T14:19:31;7.50;94.30
3416;DHT22;1721;51.238;9.562;2023-02-01T14:21:59;7.30;95.20
3416;DHT22;1721;51.238;9.562;2023-02-01T14:24:29;7.20;95.50
3416;DHT22;1721;51.238;9.562;2023-02-01T14:26:57;7.40;95.60
3416;DHT22;1721;51.238;9.562;2023-02-01T14:29:44;7.40;95.50
3416;DHT22;1721;51.238;9.562;2023-02-01T14:32:19;7.30;95.90
3416;DHT22;1721;51.238;9.562;2023-02-01T14:42:47;7.40;96.00
3416;DHT22;1721;51.238;9.562;2023-02-01T14:47:45;7.10;95.90
3416;DHT22;1721;51.238;9.562;2023-02-01T14:50:27;7.20;96.10
3416;DHT22;1721;51.238;9.562;2023-02-01T14:53:16;6.90;96.90
3416;DHT22;1721;51.238;9.562;2023-02-01T14:55:59;6.80;97.30
3416;DHT22;1721;51.238;9.562;2023-02-01T14:58:35;6.70;97.20
3416;DHT22;1721;51.238;9.562;2023-02-01T15:01:25;6.70;97.60
3416;DHT22;1721;51.238;9.562;2023-02-01T15:04:01;6.60;97.80
3416;DHT22;1721;51.238;9.562;2023-02-01T15:06:41;6.70;98.20
3416;DHT22;1721;51.238;9.562;2023-02-01T15:09:32;6.60;98.10
3416;DHT22;1721;51.238;9.562;2023-02-01T15:14:39;6.70;97.80
3416;DHT22;1721;51.238;9.562;2023-02-01T15:17:22;6.60;98.20
3416;DHT22;1721;51.238;9.562;2023-02-01T15:19:55;6.50;97.90
3416;DHT22;1721;51.238;9.562;2023-02-01T15:22:21;6.60;98.20
3416;DHT22;1721;51.238;9.562;2023-02-01T15:25:23;6.40;98.50
3416;DHT22;1721;51.238;9.562;2023-02-01T15:27:49;6.50;98.40
3416;DHT22;1721;51.238;9.562;2023-02-01T15:30:26;6.50;98.50
3416;DHT22;1721;51.238;9.562;2023-02-01T15:33:03;6.40;98.50
3416;DHT22;1721;51.238;9.562;2023-02-01T15:35:37;6.40;98.60
3416;DHT22;1721;51.238;9.562;2023-02-01T15:46:30;6.60;98.60
3416;DHT22;1721;51.238;9.562;2023-02-01T15:48:56;6.70;98.30
3416;DHT22;1721;51.238;9.562;2023-02-01T15:51:28;6.60;98.10
3416;DHT22;1721;51.238;9.562;2023-02-01T15:54:06;6.60;98.40
3416;DHT22;1721;51.238;9.562;2023-02-01T15:56:35;6.60;98.20
3416;DHT22;1721;51.238;9.562;2023-02-01T15:59:04;6.60;98.10
3416;DHT22;1721;51.238;9.562;2023-02-01T16:01:37;6.70;98.10
3416;DHT22;1721;51.238;9.562;2023-02-01T16:04:26;6.70;98.20
3416;DHT22;1721;51.238;9.562;2023-02-01T16:07:00;6.70;98.20
3416;DHT22;1721;51.238;9.562;2023-02-01T16:09:40;6.70;98.30
3416;DHT22;1721;51.238;9.562;2023-02-01T16:12:44;6.50;98.00
3416;DHT22;1721;51.238;9.562;2023-02-01T16:15:10;6.70;98.40
3416;DHT22;1721;51.238;9.562;2023-02-01T16:17:35;6.60;98.20
3416;DHT22;1721;51.238;9.562;2023-02-01T16:20:01;6.40;98.40
3416;DHT22;1721;51.238;9.562;2023-02-01T16:22:26;6.60;98.60
3416;DHT22;1721;51.238;9.562;2023-02-01T16:24:52;6.60;98.40
3416;DHT22;1721;51.238;9.562;2023-02-01T16:27:18;6.70;98.50
3416;DHT22;1721;51.238;9.562;2023-02-01T16:29:43;6.50;98.40
3416;DHT22;1721;51.238;9.562;2023-02-01T16:32:20;6.50;98.50
3416;DHT22;1721;51.238;9.562;2023-02-01T16:34:46;6.20;98.80
3416;DHT22;1721;51.238;9.562;2023-02-01T16:37:16;6.10;99.30
3416;DHT22;1721;51.238;9.562;2023-02-01T16:39:42;6.10;99.70
3416;DHT22;1721;51.238;9.562;2023-02-01T16:42:12;6.20;99.90
3416;DHT22;1721;51.238;9.562;2023-02-01T16:44:38;6.40;99.90
3416;DHT22;1721;51.238;9.562;2023-02-01T16:47:11;6.60;99.40
3416;DHT22;1721;51.238;9.562;2023-02-01T16:49:40;6.70;99.40
3416;DHT22;1721;51.238;9.562;2023-02-01T16:52:13;6.80;99.20
3416;DHT22;1721;51.238;9.562;2023-02-01T16:54:39;7.00;99.00
3416;DHT22;1721;51.238;9.562;2023-02-01T16:57:07;6.90;98.80
3416;DHT22;1721;51.238;9.562;2023-02-01T16:59:32;6.60;99.00
3416;DHT22;1721;51.238;9.562;2023-02-01T17:01:58;6.70;99.30
3416;DHT22;1721;51.238;9.562;2023-02-01T17:04:23;6.80;99.20
3416;DHT22;1721;51.238;9.562;2023-02-01T17:06:49;6.80;98.50
3416;DHT22;1721;51.238;9.562;2023-02-01T17:09:15;6.60;98.80
3416;DHT22;1721;51.238;9.562;2023-02-01T17:11:40;6.60;98.80
3416;DHT22;1721;51.238;9.562;2023-02-01T17:14:16;6.40;99.00
3416;DHT22;1721;51.238;9.562;2023-02-01T17:16:42;6.20;98.70
3416;DHT22;1721;51.238;9.562;2023-02-01T17:19:14;6.30;99.10
3416;DHT22;1721;51.238;9.562;2023-02-01T17:21:47;6.30;98.50
3416;DHT22;1721;51.238;9.562;2023-02-01T17:24:15;6.20;98.40
3416;DHT22;1721;51.238;9.562;2023-02-01T17:26:42;6.40;98.20
3416;DHT22;1721;51.238;9.562;2023-02-01T17:29:08;6.40;98.10
3416;DHT22;1721;51.238;9.562;2023-02-01T17:31:40;6.60;98.10
3416;DHT22;1721;51.238;9.562;2023-02-01T17:34:09;6.80;97.70
3416;DHT22;1721;51.238;9.562;2023-02-01T17:36:35;6.80;97.20
3416;DHT22;1721;51.238;9.562;2023-02-01T17:39:01;6.90;97.00
3416;DHT22;1721;51.238;9.562;2023-02-01T17:41:26;6.80;96.70
3416;DHT22;1721;51.238;9.562;2023-02-01T17:43:53;6.70;96.50
3416;DHT22;1721;51.238;9.562;2023-02-01T17:46:18;6.60;96.30
3416;DHT22;1721;51.238;9.562;2023-02-01T17:48:45;6.40;96.80
3416;DHT22;1721;51.238;9.562;2023-02-01T17:51:17;6.40;96.80
3416;DHT22;1721;51.238;9.562;2023-02-01T17:53:43;6.50;96.80
3416;DHT22;1721;51.238;9.562;2023-02-01T17:56:18;6.70;96.50
3416;DHT22;1721;51.238;9.562;2023-02-01T17:58:44;7.00;96.30
3416;DHT22;1721;51.238;9.562;2023-02-01T18:01:18;7.10;96.40
3416;DHT22;1721;51.238;9.562;2023-02-01T18:03:44;7.40;96.40
3416;DHT22;1721;51.238;9.562;2023-02-01T18:06:14;7.50;96.40
3416;DHT22;1721;51.238;9.562;2023-02-01T18:08:40;7.60;96.40
3416;DHT22;1721;51.238;9.562;2023-02-01T18:11:12;7.20;95.60
3416;DHT22;1721;51.238;9.562;2023-02-01T18:13:38;7.00;96.30
3416;DHT22;1721;51.238;9.562;2023-02-01T18:16:03;7.00;96.00
3416;DHT22;1721;51.238;9.562;2023-02-01T18:18:29;7.30;96.20
3416;DHT22;1721;51.238;9.562;2023-02-01T18:20:58;7.40;95.80
3416;DHT22;1721;51.238;9.562;2023-02-01T18:23:23;7.40;95.80
3416;DHT22;1721;51.238;9.562;2023-02-01T18:25:50;7.30;96.40
3416;DHT22;1721;51.238;9.562;2023-02-01T18:28:17;7.40;97.10
3416;DHT22;1721;51.238;9.562;2023-02-01T18:30:45;7.50;97.40
3416;DHT22;1721;51.238;9.562;2023-02-01T18:33:14;7.50;97.30
3416;DHT22;1721;51.238;9.562;2023-02-01T18:35:40;7.40;97.00
3416;DHT22;1721;51.238;9.562;2023-02-01T18:38:06;6.80;97.80
3416;DHT22;1721;51.238;9.562;2023-02-01T18:40:51;6.60;98.30
3416;DHT22;1721;51.238;9.562;2023-02-01T18:43:18;6.40;98.60
3416;DHT22;1721;51.238;9.562;2023-02-01T18:45:45;6.20;99.30
3416;DHT22;1721;51.238;9.562;2023-02-01T18:48:15;6.00;99.70
3416;DHT22;1721;51.238;9.562;2023-02-01T18:50:43;5.80;99.90
3416;DHT22;1721;51.238;9.562;2023-02-01T18:53:12;5.90;99.90
3416;DHT22;1721;51.238;9.562;2023-02-01T18:55:39;5.90;99.90
3416;DHT22;1721;51.238;9.562;2023-02-01T18:58:04;5.80;99.90
3416;DHT22;1721;51.238;9.562;2023-02-01T19:00:35;6.00;99.90
3416;DHT22;1721;51.238;9.562;2023-02-01T19:03:00;6.00;99.60
3416;DHT22;1721;51.238;9.562;2023-02-01T19:05:26;5.90;99.70
3416;DHT22;1721;51.238;9.562;2023-02-01T19:07:52;6.20;99.70
3416;DHT22;1721;51.238;9.562;2023-02-01T19:10:19;6.20;99.50
3416;DHT22;1721;51.238;9.562;2023-02-01T19:12:47;6.10;99.70
3416;DHT22;1721;51.238;9.562;2023-02-01T19:15:13;6.30;99.50
3416;DHT22;1721;51.238;9.562;2023-02-01T19:17:45;6.60;99.00